Terminal Aerodrome Forecast
Issued by NWS

Home | Current Version | Previous Version | Graphics & Text | Print | Product List | Glossary On
Versions: 1 2 3 4 5 6 7 8 9 10 11 12 13 14 15 16 17
000
FTUS43 KIWX 230500
TAFSBN
TAF
KSBN 230520Z 2306/2406 24007KT P6SM VCTS BKN040CB
      TEMPO 2306/2307 34015G30KT 2SM +TSRA OVC015CB
     FM230700 34012KT P6SM OVC035
     FM231500 35015G20KT P6SM SCT035
     FM240000 36008KT P6SM SKC=

USA.gov is the U.S. government's official web portal to all federal, state and local government web resources and services.